Time;durP1;ratioP1;P1;durP2;ratioP2;P2;SDS_P1;SDS_P2;PMS_P1;PMS_P2;Temp;Humidity;BMP_temperature;BMP_pressure;BME280_temperature;BME280_humidity;BME280_pressure;Samples;Min_cycle;Max_cycle;Signal;HPM_P1;HPM_P2
2023/01/14 00:00:17;;;;;;;5.03;1.67;;;3.00;99.90;;;;;;5082727;28;20204;-61
2023/01/14 00:02:42;;;;;;;4.60;1.70;;;3.00;99.90;;;;;;5083984;28;20916;-61
2023/01/14 00:05:09;;;;;;;4.80;1.90;;;3.00;99.90;;;;;;5074580;28;20428;-62
2023/01/14 00:07:35;;;;;;;8.27;2.40;;;3.00;99.90;;;;;;5088411;28;20182;-61
2023/01/14 00:10:00;;;;;;;3.03;2.20;;;2.90;99.90;;;;;;5088653;28;20419;-62
2023/01/14 00:12:26;;;;;;;5.80;2.40;;;2.90;99.90;;;;;;5087650;28;20463;-61
2023/01/14 00:14:52;;;;;;;4.47;2.03;;;3.00;99.90;;;;;;5088486;28;20170;-61
2023/01/14 00:17:17;;;;;;;2.90;1.80;;;3.00;99.90;;;;;;5082560;28;20629;-61
2023/01/14 00:19:43;;;;;;;4.90;2.17;;;3.00;99.90;;;;;;5094903;28;20201;-61
2023/01/14 00:22:09;;;;;;;3.63;2.17;;;3.00;99.90;;;;;;5084341;28;20239;-62
2023/01/14 00:24:34;;;;;;;5.53;2.30;;;3.00;99.90;;;;;;5080669;28;20178;-61
2023/01/14 00:27:00;;;;;;;6.67;2.60;;;3.10;99.90;;;;;;5071193;28;20178;-61
2023/01/14 00:29:33;;;;;;;4.10;2.00;;;3.10;99.90;;;;;;5081366;28;20245;-61
2023/01/14 00:32:03;;;;;;;7.23;2.83;;;3.10;99.90;;;;;;5085649;28;20450;-64
2023/01/14 00:34:30;;;;;;;4.00;1.90;;;3.20;99.90;;;;;;5085276;28;20827;-61
2023/01/14 00:36:56;;;;;;;6.93;1.87;;;3.20;99.90;;;;;;5084664;28;20907;-61
2023/01/14 00:39:23;;;;;;;5.50;1.73;;;3.20;99.90;;;;;;5083673;28;20526;-61
2023/01/14 00:41:49;;;;;;;2.53;2.07;;;3.20;99.90;;;;;;5086835;28;20497;-62
2023/01/14 00:44:15;;;;;;;2.43;2.03;;;3.20;99.90;;;;;;5061945;28;21107;-61
2023/01/14 00:46:41;;;;;;;4.57;1.80;;;3.20;99.90;;;;;;5087069;28;20174;-62
2023/01/14 00:49:17;;;;;;;10.60;2.10;;;3.30;99.90;;;;;;5081730;28;20428;-61
2023/01/14 00:51:43;;;;;;;4.17;1.57;;;3.30;99.90;;;;;;5088567;28;20496;-61
2023/01/14 00:54:09;;;;;;;4.53;1.47;;;3.30;99.90;;;;;;5089227;28;21003;-61
2023/01/14 00:56:34;;;;;;;4.50;2.00;;;3.30;99.90;;;;;;5093674;28;20412;-61
2023/01/14 00:59:00;;;;;;;2.40;1.50;;;3.40;99.90;;;;;;5086425;28;20198;-61
2023/01/14 01:01:26;;;;;;;4.00;1.80;;;3.40;99.90;;;;;;5082515;28;20197;-61
2023/01/14 01:03:54;;;;;;;4.10;2.37;;;3.50;99.90;;;;;;5088092;28;20169;-61
2023/01/14 01:06:22;;;;;;;6.90;2.00;;;3.50;99.90;;;;;;5081152;28;20439;-62
2023/01/14 01:08:49;;;;;;;1.87;1.40;;;3.50;99.90;;;;;;5089495;28;20426;-61
2023/01/14 01:11:18;;;;;;;3.17;1.83;;;3.50;99.90;;;;;;5070983;28;20452;-61
2023/01/14 01:13:43;;;;;;;4.30;1.93;;;3.50;99.90;;;;;;5087200;28;20432;-61
2023/01/14 01:16:15;;;;;;;4.47;2.47;;;3.50;99.90;;;;;;5079214;28;20517;-61
2023/01/14 01:18:41;;;;;;;2.60;1.60;;;3.40;99.90;;;;;;5089740;28;20232;-61
2023/01/14 01:21:14;;;;;;;2.20;1.77;;;3.40;99.90;;;;;;5088293;28;20474;-61
2023/01/14 01:23:40;;;;;;;2.57;1.40;;;3.40;99.90;;;;;;5080807;28;20508;-61
2023/01/14 01:26:11;;;;;;;2.10;1.70;;;3.40;99.90;;;;;;5089841;28;20502;-62
2023/01/14 01:28:37;;;;;;;4.23;2.30;;;3.40;99.90;;;;;;5084754;28;20174;-61
2023/01/14 01:31:05;;;;;;;5.33;2.50;;;3.40;99.90;;;;;;5098739;28;20442;-61
2023/01/14 01:33:31;;;;;;;5.93;1.80;;;3.50;99.90;;;;;;5082512;28;20677;-61
2023/01/14 01:36:11;;;;;;;8.57;1.80;;;3.50;99.90;;;;;;5088841;28;20492;-61
2023/01/14 01:38:37;;;;;;;5.40;2.40;;;3.60;99.90;;;;;;5085304;28;20991;-61
2023/01/14 01:41:02;;;;;;;6.70;2.17;;;3.60;99.90;;;;;;5087341;28;20501;-61
2023/01/14 01:43:30;;;;;;;9.80;2.13;;;3.70;99.90;;;;;;5090537;28;20185;-61
2023/01/14 01:45:57;;;;;;;10.77;2.73;;;3.70;99.90;;;;;;5086063;28;20674;-61
2023/01/14 01:48:24;;;;;;;6.63;1.67;;;3.80;99.90;;;;;;5084903;28;20432;-61
2023/01/14 01:51:04;;;;;;;6.50;1.90;;;3.80;99.90;;;;;;5083346;28;20464;-61
2023/01/14 01:53:36;;;;;;;4.10;2.10;;;3.80;99.90;;;;;;5085117;28;20439;-62
2023/01/14 01:56:04;;;;;;;6.23;1.97;;;3.80;99.90;;;;;;5093982;28;20442;-61
2023/01/14 01:58:31;;;;;;;5.63;2.50;;;3.80;99.90;;;;;;5082068;28;20435;-62
2023/01/14 02:00:56;;;;;;;8.37;1.80;;;3.80;99.90;;;;;;5091647;28;20895;-62
2023/01/14 02:03:37;;;;;;;5.30;1.70;;;3.90;99.90;;;;;;5088636;28;20435;-62
2023/01/14 02:06:03;;;;;;;8.13;2.00;;;3.90;99.90;;;;;;5083668;28;20567;-62
2023/01/14 02:08:30;;;;;;;7.40;2.20;;;3.90;99.90;;;;;;5084552;28;20530;-61
2023/01/14 02:11:31;;;;;;;4.80;1.90;;;3.90;99.90;;;;;;5093691;28;20490;-61
2023/01/14 02:14:02;;;;;;;11.23;2.10;;;3.90;99.90;;;;;;5068409;28;20553;-61
2023/01/14 02:17:00;;;;;;;5.23;2.43;;;3.90;99.90;;;;;;5086687;28;20511;-61
2023/01/14 02:20:03;;;;;;;4.93;2.10;;;4.00;99.90;;;;;;5087493;28;21012;-61
2023/01/14 02:22:37;;;;;;;3.03;1.90;;;4.00;99.90;;;;;;5084862;28;20962;-61
2023/01/14 02:25:24;;;;;;;7.83;2.10;;;4.00;99.90;;;;;;5093877;28;20426;-62
2023/01/14 02:28:01;;;;;;;3.70;2.13;;;4.00;99.90;;;;;;5082608;28;20527;-61
2023/01/14 02:31:04;;;;;;;6.67;2.23;;;4.00;99.90;;;;;;5067573;28;20458;-61
2023/01/14 02:33:43;;;;;;;8.27;2.63;;;3.90;99.90;;;;;;5065179;28;20453;-61
2023/01/14 02:36:21;;;;;;;7.03;2.33;;;3.90;99.90;;;;;;5086750;28;20431;-61
2023/01/14 02:39:07;;;;;;;4.53;2.20;;;3.90;99.90;;;;;;5072497;28;20485;-61
2023/01/14 02:44:29;;;;;;;3.00;1.50;;;3.90;99.90;;;;;;5073696;28;20948;-62
2023/01/14 02:47:00;;;;;;;4.87;1.83;;;3.90;99.90;;;;;;5090559;28;20474;-60
2023/01/14 02:49:29;;;;;;;6.83;2.00;;;3.90;99.90;;;;;;5084576;28;20608;-60
2023/01/14 02:51:57;;;;;;;3.13;2.13;;;3.90;99.90;;;;;;5084122;28;20795;-61
2023/01/14 02:54:23;;;;;;;4.17;1.80;;;3.90;99.90;;;;;;5095067;28;20420;-62
2023/01/14 02:56:50;;;;;;;6.57;2.13;;;3.80;99.90;;;;;;5082395;28;20464;-61
2023/01/14 02:59:24;;;;;;;9.53;2.00;;;3.80;99.90;;;;;;5085534;28;20432;-61
2023/01/14 03:02:15;;;;;;;7.00;2.30;;;3.80;99.90;;;;;;5083567;28;20463;-62
2023/01/14 03:05:01;;;;;;;8.43;1.73;;;3.80;99.90;;;;;;5073936;28;20458;-61
2023/01/14 03:08:06;;;;;;;7.70;2.50;;;3.90;99.90;;;;;;5086099;28;20466;-61
2023/01/14 03:10:49;;;;;;;4.17;2.30;;;3.90;99.90;;;;;;5078338;28;21013;-61
2023/01/14 03:13:24;;;;;;;5.60;2.30;;;3.90;99.90;;;;;;5097864;28;20428;-62
2023/01/14 03:16:06;;;;;;;11.73;2.30;;;3.90;99.90;;;;;;5064301;28;20436;-61
2023/01/14 03:18:48;;;;;;;14.10;2.30;;;3.90;99.90;;;;;;5089379;28;20427;-61
2023/01/14 03:21:25;;;;;;;4.97;2.20;;;3.90;99.90;;;;;;5076753;28;21096;-61
2023/01/14 03:24:07;;;;;;;7.03;2.20;;;3.90;99.90;;;;;;5085922;28;20944;-60
2023/01/14 03:26:36;;;;;;;5.40;2.10;;;3.90;99.90;;;;;;5085986;28;20432;-61
2023/01/14 03:29:07;;;;;;;16.77;3.10;;;3.90;99.90;;;;;;5086105;28;20813;-62
2023/01/14 03:31:39;;;;;;;9.50;2.13;;;4.00;99.90;;;;;;5079753;28;20463;-61
2023/01/14 03:34:10;;;;;;;14.97;2.70;;;4.00;99.90;;;;;;5084237;28;20435;-60
2023/01/14 03:36:38;;;;;;;11.40;2.30;;;4.00;99.90;;;;;;5063211;28;20427;-61
2023/01/14 03:39:13;;;;;;;6.30;2.50;;;4.00;99.90;;;;;;5082487;28;20443;-61
2023/01/14 03:44:40;;;;;;;9.30;2.80;;;4.00;99.90;;;;;;5078770;28;20981;-61
2023/01/14 03:47:06;;;;;;;8.07;2.00;;;4.00;99.90;;;;;;5084832;28;20420;-61
2023/01/14 03:49:32;;;;;;;7.83;1.83;;;4.00;99.90;;;;;;5085318;28;20434;-61
2023/01/14 03:52:05;;;;;;;10.47;2.13;;;3.90;99.90;;;;;;5082204;28;20455;-61
2023/01/14 03:55:03;;;;;;;3.77;1.70;;;3.90;99.90;;;;;;5083616;28;20646;-61
2023/01/14 03:57:44;;;;;;;8.57;2.20;;;3.90;99.90;;;;;;5078991;28;20454;-61
2023/01/14 04:00:25;;;;;;;11.87;2.03;;;3.90;99.90;;;;;;5071964;28;20546;-61
2023/01/14 04:02:54;;;;;;;5.40;2.00;;;3.90;99.90;;;;;;5090798;28;20494;-62
2023/01/14 04:05:19;;;;;;;9.27;2.83;;;3.90;99.90;;;;;;5080323;28;20428;-61
2023/01/14 04:07:49;;;;;;;12.23;2.20;;;3.90;99.90;;;;;;5081310;28;20516;-61
2023/01/14 04:10:15;;;;;;;5.23;2.57;;;3.90;99.90;;;;;;5080697;28;20212;-61
2023/01/14 04:15:20;;;;;;;12.53;2.90;;;3.90;99.90;;;;;;5075147;28;20471;-61
2023/01/14 04:15:26;;;;;;;6.30;2.23;;;3.80;99.90;;;;;;5079075;28;20810;-61
2023/01/14 04:17:52;;;;;;;6.67;2.03;;;3.80;99.90;;;;;;5063778;28;20442;-61
2023/01/14 04:20:17;;;;;;;7.33;2.57;;;3.80;99.90;;;;;;5085899;28;20213;-62
2023/01/14 04:22:43;;;;;;;5.57;1.90;;;3.80;99.90;;;;;;5080801;28;20480;-61
2023/01/14 04:25:08;;;;;;;18.23;2.60;;;3.80;99.90;;;;;;5082955;28;20260;-61
2023/01/14 04:27:34;;;;;;;11.80;2.50;;;3.80;99.90;;;;;;5081538;28;20688;-61
2023/01/14 04:30:00;;;;;;;6.93;2.57;;;3.80;99.90;;;;;;5074368;28;20181;-61
2023/01/14 04:32:25;;;;;;;11.57;2.63;;;3.80;99.90;;;;;;5082055;28;20259;-61
2023/01/14 04:34:51;;;;;;;11.40;2.33;;;3.80;99.90;;;;;;5082297;28;20638;-61
2023/01/14 04:37:16;;;;;;;16.07;2.30;;;3.80;99.90;;;;;;5076629;28;20773;-61
2023/01/14 04:39:42;;;;;;;8.07;2.13;;;3.80;99.90;;;;;;5080532;28;20162;-62
2023/01/14 04:42:27;;;;;;;7.50;2.70;;;3.80;99.90;;;;;;5087306;28;20213;-61
2023/01/14 04:44:57;;;;;;;8.70;2.37;;;3.80;99.90;;;;;;5082145;28;20258;-61
2023/01/14 04:47:24;;;;;;;10.00;2.60;;;3.80;99.90;;;;;;5080978;28;20432;-62
2023/01/14 04:49:50;;;;;;;3.57;2.00;;;3.80;99.90;;;;;;5077968;28;20454;-61
2023/01/14 04:52:16;;;;;;;11.80;2.77;;;3.80;99.90;;;;;;5074117;28;20456;-62
2023/01/14 04:54:42;;;;;;;9.03;2.50;;;3.90;99.90;;;;;;5078072;28;20420;-61
2023/01/14 04:57:08;;;;;;;8.27;2.43;;;3.90;99.90;;;;;;5086724;28;20433;-62
2023/01/14 04:59:34;;;;;;;9.97;2.50;;;3.90;99.90;;;;;;5086568;28;20455;-61
2023/01/14 05:01:59;;;;;;;10.40;2.57;;;3.90;99.90;;;;;;5079440;28;20998;-60
2023/01/14 05:04:26;;;;;;;12.57;2.60;;;3.80;99.90;;;;;;5067525;28;20629;-61
2023/01/14 05:06:52;;;;;;;11.40;3.10;;;3.80;99.90;;;;;;5081674;28;20177;-61
2023/01/14 05:09:18;;;;;;;17.60;3.20;;;3.80;99.90;;;;;;5085466;28;20539;-60
2023/01/14 05:11:43;;;;;;;6.30;2.13;;;3.80;99.90;;;;;;5084569;28;20846;-62
2023/01/14 05:14:09;;;;;;;10.43;2.40;;;3.80;99.90;;;;;;5087371;28;20181;-61
2023/01/14 05:16:35;;;;;;;10.87;2.73;;;3.80;99.90;;;;;;5082597;28;20185;-62
2023/01/14 05:19:01;;;;;;;11.47;3.33;;;3.70;99.90;;;;;;5078527;28;20186;-61
2023/01/14 05:21:26;;;;;;;8.67;2.67;;;3.70;99.90;;;;;;5069279;28;20777;-61
2023/01/14 05:23:52;;;;;;;15.83;2.73;;;3.70;99.90;;;;;;5077022;28;20197;-61
2023/01/14 05:26:17;;;;;;;6.43;2.07;;;3.70;99.90;;;;;;5072118;28;20189;-61
2023/01/14 05:28:43;;;;;;;11.50;2.53;;;3.70;99.90;;;;;;5082175;28;20182;-61
2023/01/14 05:31:09;;;;;;;7.17;3.40;;;3.70;99.90;;;;;;5081002;28;20201;-60
2023/01/14 05:33:35;;;;;;;12.37;3.17;;;3.70;99.90;;;;;;5080870;28;20185;-61
2023/01/14 05:36:00;;;;;;;10.80;2.77;;;3.70;99.90;;;;;;5087255;28;20549;-61
2023/01/14 05:38:27;;;;;;;7.90;2.40;;;3.70;99.90;;;;;;5083577;28;20444;-61
2023/01/14 05:40:53;;;;;;;6.20;2.10;;;3.70;99.90;;;;;;5079351;28;20270;-61
2023/01/14 05:46:14;;;;;;;11.47;3.00;;;3.80;99.90;;;;;;5086489;28;20211;-61
2023/01/14 05:48:40;;;;;;;12.03;2.73;;;3.80;99.90;;;;;;5073414;28;20549;-60
2023/01/14 05:51:06;;;;;;;12.20;2.30;;;3.80;99.90;;;;;;5084673;28;21199;-61
2023/01/14 05:53:32;;;;;;;10.70;2.87;;;3.80;99.90;;;;;;5072762;28;20193;-62
2023/01/14 05:55:58;;;;;;;13.57;3.00;;;3.80;99.90;;;;;;5066174;28;20464;-60
2023/01/14 05:58:25;;;;;;;17.27;3.43;;;3.80;99.90;;;;;;5083650;28;20951;-61
2023/01/14 06:06:30;;;;;;;13.47;3.40;;;3.80;99.90;;;;;;5087979;28;20477;-60
2023/01/14 06:09:02;;;;;;;6.90;3.40;;;3.80;99.90;;;;;;5088220;28;20572;-60
2023/01/14 06:11:29;;;;;;;8.37;3.00;;;3.80;99.90;;;;;;5079791;28;20585;-61
2023/01/14 06:13:57;;;;;;;12.23;2.73;;;3.70;99.90;;;;;;5093104;28;20926;-59
2023/01/14 06:16:26;;;;;;;9.90;2.57;;;3.80;99.90;;;;;;5092086;28;20424;-60
2023/01/14 06:18:52;;;;;;;11.03;2.67;;;3.70;99.90;;;;;;5086740;28;20427;-61
2023/01/14 06:21:20;;;;;;;11.50;3.50;;;3.70;99.90;;;;;;5072035;28;20497;-64
2023/01/14 06:23:47;;;;;;;7.87;2.73;;;3.70;99.90;;;;;;5075651;28;20178;-60
2023/01/14 06:26:19;;;;;;;8.00;2.70;;;3.70;99.90;;;;;;5067758;28;20470;-60
2023/01/14 06:28:45;;;;;;;10.97;2.93;;;3.80;99.90;;;;;;5079200;28;20440;-61
2023/01/14 06:31:13;;;;;;;9.37;2.57;;;3.80;99.90;;;;;;5084796;28;20976;-60
2023/01/14 06:33:40;;;;;;;7.60;2.70;;;3.80;99.90;;;;;;5086874;28;20478;-60
2023/01/14 06:36:07;;;;;;;12.27;2.47;;;3.80;99.90;;;;;;5083387;28;20864;-60
2023/01/14 06:38:33;;;;;;;17.73;3.10;;;3.80;99.90;;;;;;5086252;28;20439;-60
2023/01/14 06:41:00;;;;;;;12.17;2.40;;;3.80;99.90;;;;;;5081626;28;20467;-60
2023/01/14 06:43:26;;;;;;;7.07;2.40;;;3.80;99.90;;;;;;5088642;28;21020;-61
2023/01/14 06:45:53;;;;;;;9.03;3.10;;;3.80;99.90;;;;;;5088931;28;20443;-60
2023/01/14 06:48:19;;;;;;;6.70;2.70;;;3.70;99.90;;;;;;5073865;28;20438;-60
2023/01/14 06:50:45;;;;;;;10.63;3.20;;;3.70;99.90;;;;;;5086917;28;20459;-60
2023/01/14 06:53:10;;;;;;;8.93;2.63;;;3.70;99.90;;;;;;5084109;28;20236;-59
2023/01/14 06:55:36;;;;;;;13.63;3.20;;;3.70;99.90;;;;;;5085083;28;20193;-61
2023/01/14 06:58:01;;;;;;;7.77;2.70;;;3.70;99.90;;;;;;5081029;28;20207;-59
2023/01/14 07:00:27;;;;;;;13.20;3.30;;;3.70;99.90;;;;;;5087107;28;20201;-60
2023/01/14 07:02:53;;;;;;;5.40;2.40;;;3.70;99.90;;;;;;5079129;28;20174;-60
2023/01/14 07:05:18;;;;;;;14.70;2.50;;;3.70;99.90;;;;;;5082733;28;20186;-60
2023/01/14 07:07:47;;;;;;;8.80;2.87;;;3.70;99.90;;;;;;5084134;28;20596;-59
2023/01/14 07:10:13;;;;;;;10.00;2.57;;;3.70;99.90;;;;;;5079175;28;20246;-60
2023/01/14 07:12:46;;;;;;;7.93;2.90;;;3.70;99.90;;;;;;5078264;28;20438;-60
2023/01/14 07:15:12;;;;;;;8.30;2.50;;;3.60;99.90;;;;;;5086638;28;20427;-60
2023/01/14 07:17:38;;;;;;;9.37;3.80;;;3.60;99.90;;;;;;5080038;28;20426;-60
2023/01/14 07:20:05;;;;;;;7.10;2.90;;;3.60;99.90;;;;;;5079367;28;20464;-60
2023/01/14 07:22:31;;;;;;;12.50;3.07;;;3.60;99.90;;;;;;5087865;28;21764;-61
2023/01/14 07:24:56;;;;;;;10.47;4.70;;;3.60;99.90;;;;;;5059667;28;20431;-61
2023/01/14 07:27:22;;;;;;;13.77;4.17;;;3.60;99.90;;;;;;5074512;28;20599;-61
2023/01/14 07:29:48;;;;;;;14.93;5.80;;;3.60;99.90;;;;;;5086023;28;20180;-61
2023/01/14 07:32:13;;;;;;;13.30;4.57;;;3.60;99.90;;;;;;5073794;28;20278;-60
2023/01/14 07:34:39;;;;;;;9.60;3.87;;;3.60;99.90;;;;;;5068141;28;20216;-62
2023/01/14 07:37:04;;;;;;;10.20;3.87;;;3.60;99.90;;;;;;5060779;28;20267;-60
2023/01/14 07:39:30;;;;;;;17.83;4.87;;;3.70;99.90;;;;;;5078592;28;20566;-61
2023/01/14 07:41:56;;;;;;;15.43;5.70;;;3.70;99.90;;;;;;5075169;28;20202;-59
2023/01/14 07:44:23;;;;;;;20.30;8.73;;;3.70;99.90;;;;;;5081824;28;20181;-60
2023/01/14 07:46:54;;;;;;;16.27;9.60;;;3.70;99.90;;;;;;5080418;28;20231;-60
2023/01/14 07:49:20;;;;;;;17.80;7.97;;;3.70;99.90;;;;;;5070032;28;20511;-60
2023/01/14 07:51:46;;;;;;;17.83;8.07;;;3.70;99.90;;;;;;5083664;28;20471;-59
2023/01/14 07:54:11;;;;;;;18.07;8.80;;;3.70;99.90;;;;;;5077479;28;21174;-61
2023/01/14 07:56:37;;;;;;;18.53;8.07;;;3.70;99.90;;;;;;5085584;28;22163;-61
2023/01/14 07:59:03;;;;;;;19.00;9.10;;;3.70;99.90;;;;;;5091689;28;20264;-60
2023/01/14 08:01:28;;;;;;;21.13;10.93;;;3.70;99.90;;;;;;5088460;28;20220;-60
2023/01/14 08:03:54;;;;;;;22.23;10.07;;;3.70;99.90;;;;;;5077553;28;20661;-61
2023/01/14 08:06:20;;;;;;;18.53;7.87;;;3.70;99.90;;;;;;5087999;28;20192;-61
2023/01/14 08:08:45;;;;;;;16.53;8.83;;;3.70;99.90;;;;;;5081374;28;21117;-60
2023/01/14 08:11:11;;;;;;;13.83;7.77;;;3.70;99.90;;;;;;5077382;28;20217;-61
2023/01/14 08:13:36;;;;;;;19.43;7.17;;;3.70;99.90;;;;;;5086996;28;20260;-61
2023/01/14 08:16:03;;;;;;;13.40;6.30;;;3.70;99.90;;;;;;5087925;28;20190;-61
2023/01/14 08:18:32;;;;;;;14.97;7.30;;;3.80;99.90;;;;;;5079219;28;20187;-61
2023/01/14 08:20:59;;;;;;;22.53;9.00;;;3.80;99.90;;;;;;5081636;28;21325;-60
2023/01/14 08:23:25;;;;;;;14.73;8.70;;;3.80;99.90;;;;;;5093748;28;20910;-61
2023/01/14 08:25:51;;;;;;;17.70;8.00;;;3.90;99.90;;;;;;5084122;28;21019;-62
2023/01/14 08:28:17;;;;;;;15.40;5.20;;;4.00;99.90;;;;;;5083822;28;20463;-61
2023/01/14 08:30:42;;;;;;;7.80;3.10;;;4.00;99.90;;;;;;5091544;28;20198;-61
2023/01/14 08:33:08;;;;;;;12.13;4.07;;;4.10;99.90;;;;;;5086539;28;20646;-62
2023/01/14 08:35:41;;;;;;;8.63;4.33;;;4.20;99.90;;;;;;5073531;28;20309;-59
2023/01/14 08:38:07;;;;;;;18.43;4.37;;;4.20;99.90;;;;;;5085181;28;20439;-60
2023/01/14 08:40:33;;;;;;;11.97;3.90;;;4.30;99.90;;;;;;5087955;28;20468;-60
2023/01/14 08:42:59;;;;;;;8.87;2.70;;;4.30;99.90;;;;;;5085467;28;20420;-61
2023/01/14 08:45:25;;;;;;;6.97;2.60;;;4.40;99.90;;;;;;5086405;28;20437;-61
2023/01/14 08:47:51;;;;;;;6.00;2.83;;;4.40;99.90;;;;;;5079853;28;20685;-61
2023/01/14 08:50:16;;;;;;;16.70;3.40;;;4.40;99.90;;;;;;5081621;28;20504;-61
2023/01/14 08:52:42;;;;;;;6.50;2.90;;;4.50;99.90;;;;;;5083100;28;20236;-61
2023/01/14 08:55:08;;;;;;;23.90;4.37;;;4.50;99.90;;;;;;5085859;28;20177;-57
2023/01/14 08:57:34;;;;;;;11.00;3.00;;;4.60;99.90;;;;;;5076895;28;20183;-59
2023/01/14 09:00:00;;;;;;;13.30;3.33;;;4.60;99.90;;;;;;5085678;28;20426;-61
2023/01/14 09:02:26;;;;;;;10.07;2.97;;;4.70;99.90;;;;;;5062501;28;20194;-61
2023/01/14 09:04:51;;;;;;;13.63;2.90;;;4.70;99.90;;;;;;5067189;28;20419;-61
2023/01/14 09:18:13;;;;;;;16.57;4.00;;;4.90;99.90;;;;;;5078635;28;20468;-60
2023/01/14 09:20:42;;;;;;;6.50;3.67;;;4.90;99.90;;;;;;5080487;28;20485;-61
2023/01/14 09:23:08;;;;;;;12.90;4.10;;;4.90;99.90;;;;;;5076663;28;20193;-61
2023/01/14 09:25:34;;;;;;;8.03;3.20;;;5.00;99.90;;;;;;5075353;28;20420;-62
2023/01/14 09:28:00;;;;;;;9.27;3.20;;;5.00;99.90;;;;;;5089198;28;21002;-61
2023/01/14 09:30:26;;;;;;;6.13;3.17;;;5.00;99.90;;;;;;5067828;28;20458;-61
2023/01/14 09:32:53;;;;;;;6.70;3.33;;;5.10;99.90;;;;;;5067056;28;20182;-61
2023/01/14 09:35:19;;;;;;;10.50;3.50;;;5.10;99.90;;;;;;5057831;28;20458;-61
2023/01/14 09:37:44;;;;;;;12.30;3.63;;;5.20;99.90;;;;;;5073768;28;21432;-62
2023/01/14 09:40:11;;;;;;;7.23;2.90;;;5.30;99.90;;;;;;5059289;28;20285;-61
2023/01/14 09:42:41;;;;;;;6.23;2.13;;;5.30;99.90;;;;;;5063869;28;20182;-61
2023/01/14 09:45:13;;;;;;;4.80;2.53;;;5.40;99.90;;;;;;5079932;28;20431;-61
2023/01/14 09:47:40;;;;;;;10.63;2.80;;;5.50;99.90;;;;;;5073049;28;20494;-61
2023/01/14 09:50:13;;;;;;;5.60;3.13;;;5.60;99.90;;;;;;5063566;28;20428;-62
2023/01/14 09:52:49;;;;;;;8.03;3.17;;;5.70;99.90;;;;;;5079351;28;20748;-63
2023/01/14 09:55:25;;;;;;;6.10;2.60;;;5.80;99.90;;;;;;5079430;28;20431;-62
2023/01/14 09:57:57;;;;;;;12.23;2.47;;;5.90;99.90;;;;;;5074802;28;20513;-62
2023/01/14 10:00:32;;;;;;;10.90;3.10;;;5.90;99.90;;;;;;5078415;28;20666;-61
2023/01/14 10:03:00;;;;;;;7.07;2.90;;;5.90;99.90;;;;;;5084821;28;21018;-61
2023/01/14 10:05:29;;;;;;;5.47;2.20;;;6.00;99.90;;;;;;5076183;28;20984;-62
2023/01/14 10:07:57;;;;;;;8.83;2.30;;;6.00;99.90;;;;;;5080546;28;22227;-63
2023/01/14 10:10:30;;;;;;;8.93;2.77;;;6.00;99.90;;;;;;5081121;28;20474;-62
2023/01/14 10:13:02;;;;;;;8.80;2.97;;;6.10;99.90;;;;;;5082110;28;20935;-62
2023/01/14 10:15:47;;;;;;;14.90;2.80;;;6.10;99.90;;;;;;5080482;28;20521;-62
2023/01/14 10:18:22;;;;;;;7.37;2.37;;;6.00;99.90;;;;;;5076491;28;20437;-63
2023/01/14 10:20:57;;;;;;;9.27;2.23;;;6.10;99.90;;;;;;5066398;28;20474;-65
2023/01/14 10:23:29;;;;;;;14.10;2.93;;;6.10;99.90;;;;;;5078543;28;20432;-63
2023/01/14 10:25:56;;;;;;;17.27;3.47;;;6.00;99.90;;;;;;5081384;28;20419;-63
2023/01/14 10:28:29;;;;;;;10.13;2.40;;;6.10;99.90;;;;;;5075313;28;20420;-62
2023/01/14 10:30:59;;;;;;;4.90;2.27;;;6.10;99.90;;;;;;5085191;28;20443;-63
2023/01/14 10:33:24;;;;;;;11.63;2.47;;;6.10;99.90;;;;;;5082131;28;20421;-63
2023/01/14 10:36:04;;;;;;;10.40;3.03;;;6.10;99.90;;;;;;5087930;28;20450;-62
2023/01/14 10:38:30;;;;;;;11.73;4.13;;;6.10;99.90;;;;;;5085179;28;20225;-63
2023/01/14 10:41:04;;;;;;;6.07;3.27;;;6.10;99.90;;;;;;5072512;28;20486;-61
2023/01/14 10:43:39;;;;;;;10.17;3.07;;;6.10;99.90;;;;;;5082612;28;20874;-61
2023/01/14 10:46:05;;;;;;;4.00;2.50;;;6.10;99.90;;;;;;5072361;28;20992;-62
2023/01/14 10:48:57;;;;;;;12.23;3.03;;;6.20;99.90;;;;;;5081642;28;20471;-61
2023/01/14 10:51:36;;;;;;;5.57;2.70;;;6.20;99.90;;;;;;5071891;28;20528;-62
2023/01/14 10:54:28;;;;;;;9.60;3.70;;;6.30;99.90;;;;;;5067203;28;20798;-62
2023/01/14 10:57:15;;;;;;;10.53;2.83;;;6.30;99.90;;;;;;5082211;28;20501;-62
2023/01/14 10:59:55;;;;;;;8.50;2.87;;;6.30;99.90;;;;;;5087855;28;20448;-62
2023/01/14 11:02:26;;;;;;;5.97;2.80;;;6.30;99.90;;;;;;5089818;28;20455;-62
2023/01/14 11:04:52;;;;;;;9.73;3.13;;;6.40;99.90;;;;;;5065324;28;20431;-62
2023/01/14 11:07:32;;;;;;;6.20;3.60;;;6.40;99.90;;;;;;5077528;28;20926;-62
2023/01/14 11:10:01;;;;;;;10.30;3.70;;;6.40;99.90;;;;;;5087581;28;20934;-62
2023/01/14 11:12:27;;;;;;;13.53;3.10;;;6.40;99.90;;;;;;5065916;28;20455;-62
2023/01/14 11:14:53;;;;;;;12.70;3.63;;;6.50;99.90;;;;;;5082433;28;20516;-61
2023/01/14 11:17:31;;;;;;;8.20;2.50;;;6.50;99.90;;;;;;5081806;28;20968;-61
2023/01/14 11:20:19;;;;;;;10.23;3.90;;;6.50;99.90;;;;;;5062817;28;20429;-62
2023/01/14 11:22:54;;;;;;;9.23;2.63;;;6.60;99.90;;;;;;5063946;28;20438;-62
2023/01/14 11:25:23;;;;;;;5.97;2.80;;;6.60;99.90;;;;;;5078787;28;20416;-62
2023/01/14 11:27:50;;;;;;;12.17;2.87;;;6.60;99.90;;;;;;5085137;28;20422;-62
2023/01/14 11:30:21;;;;;;;10.83;4.00;;;6.60;99.90;;;;;;5082940;28;20439;-62
2023/01/14 11:32:49;;;;;;;8.53;3.13;;;6.70;99.90;;;;;;5093049;28;20416;-62
2023/01/14 11:35:26;;;;;;;8.30;2.80;;;6.60;99.90;;;;;;5068782;28;20784;-62
2023/01/14 11:37:56;;;;;;;5.93;2.63;;;6.60;99.90;;;;;;5083784;28;20827;-61
2023/01/14 11:40:24;;;;;;;7.00;3.40;;;6.60;99.90;;;;;;5076134;28;20455;-62
2023/01/14 11:42:50;;;;;;;6.77;2.50;;;6.60;99.90;;;;;;5091153;28;20428;-62
2023/01/14 11:45:18;;;;;;;8.93;3.17;;;6.60;99.90;;;;;;5090876;28;20426;-62
2023/01/14 11:47:57;;;;;;;9.90;3.30;;;6.60;99.90;;;;;;5084934;28;20423;-62
2023/01/14 11:50:28;;;;;;;6.67;2.40;;;6.60;99.90;;;;;;5085065;28;20533;-62
2023/01/14 11:52:58;;;;;;;13.10;3.27;;;6.60;99.90;;;;;;5086631;28;20557;-62
2023/01/14 11:55:26;;;;;;;4.43;2.00;;;6.60;99.90;;;;;;5080638;28;20440;-62
2023/01/14 11:57:52;;;;;;;10.20;2.80;;;6.60;99.90;;;;;;5081742;28;20456;-62
2023/01/14 12:00:20;;;;;;;7.00;4.37;;;6.70;99.90;;;;;;5091174;28;20483;-62
2023/01/14 12:02:58;;;;;;;9.23;3.70;;;6.70;99.90;;;;;;5088732;28;20267;-61
2023/01/14 12:05:25;;;;;;;5.70;2.90;;;6.80;99.90;;;;;;5081982;28;20767;-61
2023/01/14 12:08:01;;;;;;;4.30;2.80;;;6.90;99.90;;;;;;5087596;28;20515;-62
2023/01/14 12:10:36;;;;;;;17.77;4.40;;;6.90;99.90;;;;;;5090711;28;20431;-62
2023/01/14 12:18:57;;;;;;;9.23;3.10;;;7.00;99.90;;;;;;5087578;28;20796;-62
2023/01/14 12:21:30;;;;;;;6.87;2.63;;;7.00;99.90;;;;;;5066032;28;21007;-62
2023/01/14 12:24:04;;;;;;;15.30;2.70;;;7.00;99.90;;;;;;5073628;28;20846;-62
2023/01/14 12:26:37;;;;;;;3.70;2.60;;;7.00;99.90;;;;;;5079262;28;20445;-62
2023/01/14 12:29:06;;;;;;;8.93;3.50;;;6.90;99.90;;;;;;5086983;28;20828;-62
2023/01/14 12:31:38;;;;;;;7.47;3.30;;;6.90;99.90;;;;;;5079430;28;20578;-62
2023/01/14 12:34:28;;;;;;;7.70;3.40;;;6.90;99.90;;;;;;5084537;28;20443;-62
2023/01/14 12:37:16;;;;;;;8.57;3.13;;;6.80;99.90;;;;;;5087133;28;20435;-62
2023/01/14 12:45:41;;;;;;;8.57;2.60;;;6.70;99.90;;;;;;5081790;28;20916;-62
2023/01/14 12:48:09;;;;;;;7.17;2.30;;;6.70;99.90;;;;;;5074536;28;20515;-62
2023/01/14 12:50:41;;;;;;;7.77;2.60;;;6.70;99.90;;;;;;5075654;28;20534;-61
2023/01/14 12:53:14;;;;;;;5.63;3.23;;;6.70;99.90;;;;;;5078226;28;21117;-62
2023/01/14 12:55:44;;;;;;;10.33;3.07;;;6.70;99.90;;;;;;5085619;28;20439;-62
2023/01/14 12:58:19;;;;;;;6.03;2.70;;;6.70;99.90;;;;;;5078149;28;20463;-62
2023/01/14 13:00:56;;;;;;;5.73;2.40;;;6.70;99.90;;;;;;5081928;28;21058;-62
2023/01/14 13:03:29;;;;;;;9.30;3.33;;;6.70;99.90;;;;;;5056917;28;20918;-62
2023/01/14 13:05:55;;;;;;;7.00;2.00;;;6.70;99.90;;;;;;5078600;28;20970;-62
2023/01/14 13:08:26;;;;;;;5.37;2.90;;;6.70;99.90;;;;;;5078253;28;20489;-62
2023/01/14 13:11:06;;;;;;;5.53;2.57;;;6.80;99.90;;;;;;5080339;28;20225;-62
2023/01/14 13:13:36;;;;;;;4.97;2.80;;;6.80;99.90;;;;;;5087092;28;20439;-62
2023/01/14 13:16:22;;;;;;;10.90;2.93;;;6.90;99.90;;;;;;5083366;28;20556;-62
2023/01/14 13:18:56;;;;;;;6.43;3.07;;;7.00;99.90;;;;;;5071038;28;20950;-62
2023/01/14 13:22:00;;;;;;;20.90;4.33;;;7.00;99.90;;;;;;5073458;28;20520;-57
2023/01/14 13:24:47;;;;;;;13.93;3.10;;;7.10;99.90;;;;;;5077930;28;20438;-63
2023/01/14 13:27:40;;;;;;;6.60;2.60;;;7.20;99.90;;;;;;5082849;28;20575;-63
2023/01/14 13:30:18;;;;;;;9.03;2.30;;;7.20;99.90;;;;;;5066651;28;21427;-63
2023/01/14 13:32:52;;;;;;;10.50;3.67;;;7.20;99.90;;;;;;5077918;28;20432;-63
2023/01/14 13:35:19;;;;;;;10.13;2.50;;;7.20;99.90;;;;;;5064083;28;20603;-62
2023/01/14 13:37:46;;;;;;;9.37;3.30;;;7.20;99.90;;;;;;5078514;28;20436;-61
2023/01/14 13:40:18;;;;;;;4.53;2.33;;;7.20;99.90;;;;;;5078472;28;20444;-63
2023/01/14 13:42:44;;;;;;;9.63;2.93;;;7.20;99.90;;;;;;5068139;28;20523;-63
2023/01/14 13:45:28;;;;;;;6.90;2.73;;;7.20;99.90;;;;;;5087437;28;20526;-62